createdAt,value
2018-11-25T06:25:36.735Z,44.90
2018-11-25T06:28:37.378Z,45.20
2018-11-25T06:31:34.885Z,44.90
2018-11-25T06:34:35.904Z,44.80
2018-11-25T06:37:34.379Z,44.90
2018-11-25T06:40:40.257Z,45.00
2018-11-25T06:43:37.586Z,45.20
2018-11-25T06:46:41.931Z,44.90
2018-11-25T06:49:45.097Z,45.00
2018-11-25T06:52:50.402Z,44.70
2018-11-25T06:55:51.075Z,44.10
2018-11-25T06:58:56.612Z,44.10
2018-11-25T07:01:59.932Z,44.10
2018-11-25T07:05:02.955Z,43.80
2018-11-25T07:07:59.035Z,44.10
2018-11-25T07:10:55.358Z,44.40
2018-11-25T07:13:52.212Z,44.40
2018-11-25T07:16:48.795Z,44.50
2018-11-25T07:19:50.647Z,44.80
2018-11-25T07:22:48.860Z,44.70
2018-11-25T07:25:53.180Z,44.40
2018-11-25T07:28:46.432Z,44.20
2018-11-25T07:31:47.090Z,44.50
2018-11-25T07:34:43.738Z,44.80
2018-11-25T07:37:44.300Z,44.30
2018-11-25T07:40:41.204Z,44.40
2018-11-25T07:43:37.493Z,44.20
2018-11-25T07:46:34.287Z,44.50
2018-11-25T07:49:31.154Z,44.30
2018-11-25T07:52:27.573Z,44.40
2018-11-25T07:55:27.557Z,44.30
2018-11-25T07:58:24.319Z,44.30
2018-11-25T08:01:21.499Z,44.30
2018-11-25T08:04:18.954Z,44.10
2018-11-25T08:07:16.997Z,44.00
2018-11-25T08:10:22.140Z,44.40
2018-11-25T08:13:19.720Z,44.20
2018-11-25T08:16:21.664Z,44.00
2018-11-25T08:19:19.968Z,44.00
2018-11-25T08:22:18.629Z,43.70
2018-11-25T08:25:22.576Z,43.90
2018-11-25T08:28:19.459Z,43.30
2018-11-25T08:31:19.327Z,43.70
2018-11-25T08:34:15.794Z,43.70
2018-11-25T08:37:17.549Z,43.70
2018-11-25T08:40:11.315Z,43.30
2018-11-25T08:43:11.326Z,43.20
2018-11-25T08:46:13.232Z,42.90
2018-11-25T08:49:10.735Z,42.90
2018-11-25T08:52:07.407Z,42.80
2018-11-25T08:55:06.817Z,43.30
2018-11-25T08:58:05.042Z,43.60
2018-11-25T09:01:03.545Z,43.50
2018-11-25T09:04:01.526Z,43.10
2018-11-25T09:06:58.852Z,43.30
2018-11-25T09:09:56.923Z,43.50
2018-11-25T09:12:58.251Z,43.20
2018-11-25T09:15:55.120Z,43.60
2018-11-25T09:18:52.606Z,43.60
2018-11-25T09:21:49.759Z,43.50
2018-11-25T09:24:50.353Z,43.80
2018-11-25T09:27:47.318Z,43.80
2018-11-25T09:30:44.982Z,43.80
2018-11-25T09:33:42.311Z,43.60
2018-11-25T09:36:40.827Z,43.90
2018-11-25T09:39:38.201Z,43.80
2018-11-25T09:42:37.543Z,43.80
2018-11-25T09:45:38.219Z,44.00
2018-11-25T09:48:35.352Z,44.00
2018-11-25T09:51:35.434Z,44.00
2018-11-25T09:54:32.670Z,44.20
2018-11-25T09:57:30.316Z,44.10
2018-11-25T10:00:40.415Z,44.30
2018-11-25T10:03:37.791Z,44.10
2018-11-25T10:06:34.391Z,44.10
2018-11-25T10:09:30.984Z,44.20
2018-11-25T10:12:27.270Z,44.30
2018-11-25T10:15:27.883Z,44.00
2018-11-25T10:18:25.082Z,44.20
2018-11-25T10:21:21.843Z,44.20
2018-11-25T10:24:18.676Z,43.70
2018-11-25T10:27:16.561Z,43.60
2018-11-25T10:30:18.024Z,43.50
2018-11-25T10:33:19.907Z,43.60
2018-11-25T10:36:17.083Z,43.80
2018-11-25T10:39:16.175Z,43.60
2018-11-25T10:42:13.206Z,43.90
2018-11-25T10:45:11.340Z,43.80
2018-11-25T10:48:09.086Z,43.60
2018-11-25T10:51:06.293Z,43.60
2018-11-25T10:54:03.103Z,43.40
2018-11-25T10:57:00.145Z,43.40
2018-11-25T10:59:57.739Z,43.50
2018-11-25T11:03:10.436Z,43.90
2018-11-25T11:06:27.002Z,43.90
2018-11-25T11:09:24.378Z,44.10
2018-11-25T11:12:22.038Z,44.00
2018-11-25T11:15:20.272Z,44.20
2018-11-25T11:18:16.875Z,44.00
2018-11-25T11:21:15.573Z,44.20
2018-11-25T11:24:13.212Z,44.20
2018-11-25T11:27:10.567Z,44.30
2018-11-25T11:30:07.854Z,44.50
2018-11-25T11:33:06.146Z,44.30
2018-11-25T11:36:04.543Z,44.40
2018-11-25T11:39:02.969Z,44.40
2018-11-25T11:42:00.414Z,44.40
2018-11-25T11:44:56.698Z,44.30
2018-11-25T11:47:53.064Z,44.40
2018-11-25T11:50:50.185Z,44.60
2018-11-25T11:53:47.335Z,44.80
2018-11-25T11:56:44.641Z,44.90
2018-11-25T11:59:41.737Z,44.80
2018-11-25T12:02:39.837Z,44.90
2018-11-25T12:05:36.247Z,45.00
2018-11-25T12:08:36.955Z,45.00
2018-11-25T12:11:38.348Z,45.00
2018-11-25T12:14:31.254Z,45.10
2018-11-25T12:17:28.141Z,45.20
2018-11-25T12:20:29.398Z,45.20
2018-11-25T12:23:26.607Z,45.30
2018-11-25T12:26:24.095Z,45.10
2018-11-25T12:29:24.548Z,45.30
2018-11-25T12:32:18.114Z,45.30
2018-11-25T12:35:19.376Z,45.30
2018-11-25T12:38:12.942Z,45.20
2018-11-25T12:41:13.206Z,45.20
2018-11-25T12:44:10.323Z,45.20
2018-11-25T12:47:10.460Z,45.20
2018-11-25T12:50:06.756Z,45.30
2018-11-25T12:53:03.898Z,45.30
2018-11-25T12:56:01.743Z,45.30
2018-11-25T12:58:58.790Z,45.40
2018-11-25T13:01:57.533Z,45.20
2018-11-25T13:04:54.432Z,45.30
2018-11-25T13:07:53.784Z,45.40
2018-11-25T13:10:51.580Z,45.30
2018-11-25T13:13:51.442Z,45.30
2018-11-25T13:16:48.364Z,45.40
2018-11-25T13:19:45.585Z,45.30
2018-11-25T13:22:49.433Z,45.40
2018-11-25T13:25:48.577Z,45.40
2018-11-25T13:28:45.469Z,45.40
2018-11-25T13:31:42.233Z,45.40
2018-11-25T13:34:39.238Z,45.50
2018-11-25T13:37:36.349Z,45.40
2018-11-25T13:40:36.113Z,45.60
2018-11-25T13:43:33.248Z,45.50
2018-11-25T13:46:30.652Z,45.40
2018-11-25T13:49:27.426Z,45.40
2018-11-25T13:52:23.966Z,45.60
2018-11-25T13:55:28.889Z,45.60
2018-11-25T13:58:22.269Z,45.60
2018-11-25T14:01:25.122Z,45.60
2018-11-25T14:04:18.403Z,45.50
2018-11-25T14:07:15.367Z,45.50
2018-11-25T14:10:40.168Z,45.50
2018-11-25T14:13:36.600Z,45.50
2018-11-25T14:16:34.999Z,45.50
2018-11-25T14:19:30.017Z,45.40
2018-11-25T14:22:27.405Z,45.40
2018-11-25T14:25:26.098Z,45.40
2018-11-25T14:28:23.846Z,45.50
2018-11-25T14:31:22.331Z,45.60
2018-11-25T14:34:18.696Z,45.60
2018-11-25T14:37:15.691Z,45.50
2018-11-25T14:40:16.289Z,45.60
2018-11-25T14:43:13.358Z,45.70
2018-11-25T14:46:11.858Z,45.70
2018-11-25T14:49:08.568Z,45.80
2018-11-25T14:52:05.129Z,45.80
2018-11-25T14:55:04.527Z,45.80
2018-11-25T14:58:01.028Z,45.90
2018-11-25T15:00:57.367Z,46.00
2018-11-25T15:03:54.902Z,45.90
2018-11-25T15:06:51.709Z,46.00
2018-11-25T15:09:48.178Z,46.10
2018-11-25T15:12:45.230Z,46.00
2018-11-25T15:15:42.092Z,46.00
2018-11-25T15:18:38.794Z,46.00
2018-11-25T15:21:36.240Z,46.20
2018-11-25T15:24:33.104Z,46.10
2018-11-25T15:27:32.647Z,46.10
2018-11-25T15:30:29.386Z,46.10
2018-11-25T15:33:26.345Z,46.20
2018-11-25T15:36:23.058Z,46.20
2018-11-25T15:39:20.537Z,46.30
2018-11-25T15:42:19.301Z,46.40
2018-11-25T15:45:17.759Z,46.50
2018-11-25T15:48:26.885Z,46.60
2018-11-25T15:51:23.099Z,46.70
2018-11-25T15:54:25.000Z,46.70
2018-11-25T15:57:21.678Z,46.70
2018-11-25T16:00:30.164Z,46.70
2018-11-25T16:03:32.597Z,46.70
2018-11-25T16:06:49.442Z,46.80
2018-11-25T16:09:48.927Z,47.00
2018-11-25T16:12:45.380Z,46.90
2018-11-25T16:15:43.987Z,46.90
2018-11-25T16:18:41.957Z,46.90
2018-11-25T16:21:41.435Z,46.90
2018-11-25T16:24:38.170Z,46.80
2018-11-25T16:27:38.417Z,46.90
2018-11-25T16:30:42.785Z,46.80
2018-11-25T16:33:43.782Z,46.70
2018-11-25T16:36:41.494Z,46.70
2018-11-25T16:39:37.953Z,46.70
2018-11-25T16:42:36.091Z,46.80
2018-11-25T16:45:34.392Z,46.70
2018-11-25T16:48:31.058Z,46.70
2018-11-25T16:51:28.293Z,46.60
2018-11-25T16:54:25.906Z,46.60
2018-11-25T16:57:23.732Z,46.50
2018-11-25T17:00:27.139Z,46.50
2018-11-25T17:03:24.313Z,46.40
2018-11-25T17:06:21.305Z,46.30
2018-11-25T17:09:19.099Z,46.30
2018-11-25T17:12:15.531Z,46.30
2018-11-25T17:15:18.630Z,46.40
2018-11-25T17:18:19.202Z,46.30
2018-11-25T17:21:15.823Z,46.20
2018-11-25T17:24:13.102Z,46.30
2018-11-25T17:27:13.973Z,46.30
2018-11-25T17:30:28.631Z,46.30
2018-11-25T17:33:29.699Z,46.20
2018-11-25T17:36:26.686Z,46.40
2018-11-25T17:39:24.441Z,46.50
2018-11-25T17:42:21.612Z,46.60
2018-11-25T17:45:21.374Z,46.60
2018-11-25T17:48:20.744Z,46.60
2018-11-25T17:51:22.565Z,46.60
2018-11-25T17:54:22.540Z,46.70
2018-11-25T17:57:21.395Z,46.70
2018-11-25T18:00:40.410Z,46.70
2018-11-25T18:03:38.585Z,46.70
2018-11-25T18:06:35.196Z,46.70
2018-11-25T18:09:34.861Z,46.60
2018-11-25T18:12:33.253Z,46.60
2018-11-25T18:15:30.607Z,46.70
2018-11-25T18:18:36.865Z,46.70
2018-11-25T18:21:37.264Z,47.00
2018-11-25T18:24:33.673Z,47.00
2018-11-25T18:27:30.447Z,47.10
2018-11-25T18:30:27.493Z,47.10
2018-11-25T18:33:25.095Z,47.20
2018-11-25T18:36:27.466Z,47.20
2018-11-25T18:39:26.480Z,47.30
2018-11-25T18:42:24.805Z,47.30
2018-11-25T18:45:25.038Z,47.30
2018-11-25T18:48:25.748Z,47.40
2018-11-25T18:51:19.247Z,47.30
2018-11-25T18:54:15.900Z,47.20
2018-11-25T18:57:13.081Z,47.30
2018-11-25T19:00:10.146Z,47.10
2018-11-25T19:03:06.958Z,47.00
2018-11-25T19:06:04.020Z,47.10
2018-11-25T19:09:00.552Z,47.20
2018-11-25T19:11:56.859Z,47.10
2018-11-25T19:14:53.694Z,47.10
2018-11-25T19:17:50.227Z,47.10
2018-11-25T19:20:46.315Z,46.80
2018-11-25T19:23:43.097Z,46.50
2018-11-25T19:26:39.913Z,46.50
2018-11-25T19:29:37.397Z,46.30
2018-11-25T19:32:34.208Z,46.40
2018-11-25T19:35:31.295Z,46.50
2018-11-25T19:38:29.104Z,46.50
2018-11-25T19:41:26.049Z,46.50
2018-11-25T19:44:23.048Z,46.60
2018-11-25T19:47:25.649Z,46.70
2018-11-25T19:50:29.403Z,46.80
2018-11-25T19:53:28.746Z,46.60
2018-11-25T19:56:27.975Z,46.90
2018-11-25T19:59:24.827Z,46.80
2018-11-25T20:02:22.211Z,46.60
2018-11-25T20:05:22.086Z,46.50
2018-11-25T20:08:19.712Z,46.50
2018-11-25T20:11:19.773Z,46.60
2018-11-25T20:14:16.979Z,46.60
2018-11-25T20:17:32.727Z,46.30
2018-11-25T20:20:31.507Z,46.10
2018-11-25T20:23:28.505Z,46.80
2018-11-25T20:26:25.486Z,46.60
2018-11-25T20:29:22.272Z,46.50
2018-11-25T20:32:35.423Z,46.50
2018-11-25T20:35:33.053Z,46.50
2018-11-25T20:38:45.647Z,46.30
2018-11-25T20:41:42.327Z,46.20
2018-11-25T20:44:38.934Z,46.40
2018-11-25T20:47:35.898Z,46.20
2018-11-25T20:50:32.969Z,46.20
2018-11-25T20:53:45.408Z,46.20
2018-11-25T20:56:42.439Z,46.20
2018-11-25T20:59:39.402Z,46.40
2018-11-25T21:02:36.399Z,46.00
2018-11-25T21:05:33.384Z,46.20
2018-11-25T21:08:30.684Z,46.40
2018-11-25T21:11:27.450Z,46.20
2018-11-25T21:14:26.834Z,46.40
2018-11-25T21:17:23.378Z,46.40
2018-11-25T21:20:23.751Z,46.40
2018-11-25T21:23:22.910Z,46.40
2018-11-25T21:26:19.858Z,46.30
2018-11-25T21:29:16.564Z,46.60
2018-11-25T21:32:13.500Z,46.70
2018-11-25T21:35:11.423Z,46.70
2018-11-25T21:38:08.620Z,46.60
2018-11-25T21:41:05.375Z,46.80
2018-11-25T21:44:02.940Z,46.70
2018-11-25T21:47:00.226Z,46.60
2018-11-25T21:50:00.046Z,46.40
2018-11-25T21:52:56.322Z,46.80
2018-11-25T21:55:52.798Z,46.80
2018-11-25T21:58:52.590Z,46.50
2018-11-25T22:01:50.943Z,46.80
2018-11-25T22:04:47.554Z,46.90
2018-11-25T22:07:44.634Z,46.80
2018-11-25T22:10:42.220Z,46.70
2018-11-25T22:13:39.735Z,46.50
2018-11-25T22:16:40.310Z,46.80
2018-11-25T22:19:35.379Z,46.80
2018-11-25T22:22:34.925Z,46.80
2018-11-25T22:25:33.899Z,46.90
2018-11-25T22:28:35.869Z,46.80
2018-11-25T22:31:35.213Z,46.80
2018-11-25T22:34:34.489Z,46.80
2018-11-25T22:37:34.897Z,46.70
2018-11-25T22:40:31.334Z,46.80
2018-11-25T22:43:27.884Z,46.80
2018-11-25T22:46:26.141Z,46.70
2018-11-25T22:49:23.387Z,46.60
2018-11-25T22:52:20.726Z,46.70
2018-11-25T22:55:25.277Z,46.80
2018-11-25T22:58:22.136Z,46.80
2018-11-25T23:01:19.190Z,46.70
2018-11-25T23:04:48.576Z,46.80
2018-11-25T23:07:45.305Z,46.90
2018-11-25T23:10:42.025Z,46.80
2018-11-25T23:13:38.872Z,46.70
2018-11-25T23:16:36.986Z,46.70
2018-11-25T23:19:33.693Z,46.80
2018-11-25T23:22:30.861Z,46.70
2018-11-25T23:25:27.558Z,46.80
2018-11-25T23:28:24.319Z,46.60
2018-11-25T23:31:20.879Z,46.70
2018-11-25T23:34:17.382Z,46.60
2018-11-25T23:37:14.447Z,46.70
2018-11-25T23:40:12.094Z,46.80
2018-11-25T23:43:11.895Z,46.80
2018-11-25T23:46:08.985Z,46.80
2018-11-25T23:49:11.481Z,46.60
2018-11-25T23:52:08.071Z,46.60
2018-11-25T23:55:05.660Z,46.80
2018-11-25T23:58:02.206Z,47.00
